createdAt,value
2022-10-19T00:00:29.925Z,45586.09
2022-10-19T00:02:56.316Z,45586.09
2022-10-19T00:05:22.676Z,45570.09
2022-10-19T00:07:49.037Z,45582.09
2022-10-19T00:10:15.537Z,45574.09
2022-10-19T00:12:42.038Z,45554.09
2022-10-19T00:15:08.768Z,45594.09
2022-10-19T00:17:35.697Z,45592.09
2022-10-19T00:20:02.331Z,45570.09
2022-10-19T00:22:28.790Z,45588.09
2022-10-19T00:24:57.784Z,45590.09
2022-10-19T00:27:24.196Z,45588.09
2022-10-19T00:29:50.569Z,45586.09
2022-10-19T00:32:16.958Z,45566.09
2022-10-19T00:34:43.392Z,45590.09
2022-10-19T00:37:09.772Z,45586.09
2022-10-19T00:39:36.234Z,45606.06
2022-10-19T00:42:02.617Z,45592.09
2022-10-19T00:44:29.012Z,45590.09
2022-10-19T00:47:00.834Z,45610.06
2022-10-19T00:49:33.336Z,45582.09
2022-10-19T00:52:04.412Z,45606.06
2022-10-19T00:54:36.363Z,45602.06
2022-10-19T00:57:04.257Z,45594.09
2022-10-19T00:59:31.986Z,45602.06
2022-10-19T01:01:59.350Z,45582.09
2022-10-19T01:04:27.775Z,45596.06
2022-10-19T01:06:54.911Z,45586.09
2022-10-19T01:09:21.330Z,45590.09
2022-10-19T01:12:07.431Z,45620.06
2022-10-19T01:14:33.816Z,45596.06
2022-10-19T01:17:27.846Z,45594.09
2022-10-19T01:20:00.189Z,45596.06
2022-10-19T01:22:39.464Z,45590.09
2022-10-19T01:25:11.793Z,45590.09
2022-10-19T01:28:01.558Z,45610.06
2022-10-19T01:31:04.580Z,45600.06
2022-10-19T01:33:35.182Z,45598.06
2022-10-19T01:36:26.185Z,45594.09
2022-10-19T01:39:33.525Z,45618.06
2022-10-19T01:42:11.972Z,45596.06
2022-10-19T01:44:57.604Z,45602.06
2022-10-19T01:47:33.565Z,45612.06
2022-10-19T01:50:08.494Z,45614.06
2022-10-19T01:52:37.865Z,45606.06
2022-10-19T01:55:04.963Z,45600.06
2022-10-19T01:57:35.958Z,45616.06
2022-10-19T02:00:07.465Z,45578.09
2022-10-19T02:02:46.459Z,45604.06
2022-10-19T02:05:13.987Z,45614.06
2022-10-19T02:07:45.626Z,45594.09
2022-10-19T02:10:12.075Z,45588.09
2022-10-19T02:12:40.137Z,45606.06
2022-10-19T02:15:12.509Z,45594.09
2022-10-19T02:17:44.549Z,45598.06
2022-10-19T02:20:11.248Z,45614.06
2022-10-19T02:22:37.757Z,45616.06
2022-10-19T02:25:04.861Z,45610.06
2022-10-19T02:27:31.257Z,45602.06
2022-10-19T02:29:57.731Z,45618.06
2022-10-19T02:32:24.201Z,45618.06
2022-10-19T02:34:50.645Z,45634.06
2022-10-19T02:37:19.868Z,45616.06
2022-10-19T02:39:48.496Z,45606.06
2022-10-19T02:42:26.125Z,45602.06
2022-10-19T02:45:00.010Z,45618.06
2022-10-19T02:47:33.705Z,45634.06
2022-10-19T02:50:01.059Z,45606.06
2022-10-19T02:52:27.428Z,45604.06
2022-10-19T02:54:53.837Z,45618.06
2022-10-19T02:57:23.405Z,45614.06
2022-10-19T02:59:50.462Z,45606.06
2022-10-19T03:02:18.016Z,45630.06
2022-10-19T03:04:45.147Z,45618.06
2022-10-19T03:07:14.666Z,45630.06
2022-10-19T03:09:42.028Z,45614.06
2022-10-19T03:12:08.602Z,45626.06
2022-10-19T03:14:34.995Z,45620.06
2022-10-19T03:17:01.801Z,45622.06
2022-10-19T03:19:28.251Z,45634.06
2022-10-19T03:21:54.745Z,45606.06
2022-10-19T03:24:22.170Z,45616.06
2022-10-19T03:26:48.941Z,45620.06
2022-10-19T03:29:15.390Z,45610.06
2022-10-19T03:31:41.881Z,45610.06
2022-10-19T03:34:08.291Z,45626.06
2022-10-19T03:36:36.957Z,45614.06
2022-10-19T03:39:06.791Z,45612.06
2022-10-19T03:41:35.583Z,45614.06
2022-10-19T03:44:02.454Z,45624.06
2022-10-19T03:46:29.081Z,45606.06
2022-10-19T03:48:55.475Z,45612.06
2022-10-19T03:51:27.103Z,45614.06
2022-10-19T03:53:59.239Z,45634.06
2022-10-19T03:56:27.464Z,45614.06
2022-10-19T03:58:55.961Z,45642.03
2022-10-19T04:01:28.919Z,45630.06
2022-10-19T04:04:00.722Z,45614.06
2022-10-19T04:06:29.969Z,45624.06
2022-10-19T04:08:56.929Z,45624.06
2022-10-19T04:11:29.145Z,45634.06
2022-10-19T04:13:57.124Z,45614.06
2022-10-19T04:16:24.818Z,45626.06
2022-10-19T04:18:51.564Z,45642.03
2022-10-19T04:21:26.251Z,45614.06
2022-10-19T04:23:56.765Z,45618.06
2022-10-19T04:26:23.795Z,45630.06
2022-10-19T04:28:50.331Z,45622.06
2022-10-19T04:31:16.761Z,45618.06
2022-10-19T04:33:43.205Z,45602.06
2022-10-19T04:36:11.916Z,45628.06
2022-10-19T04:38:39.194Z,45618.06
2022-10-19T04:41:11.617Z,45620.06
2022-10-19T04:43:38.490Z,45604.06
2022-10-19T04:46:10.302Z,45618.06
2022-10-19T04:48:38.299Z,45618.06
2022-10-19T04:51:05.126Z,45634.06
2022-10-19T04:53:32.590Z,45616.06
2022-10-19T04:55:58.994Z,45614.06
2022-10-19T04:58:25.428Z,45618.06
2022-10-19T05:00:51.845Z,45618.06
2022-10-19T05:03:18.458Z,45634.06
2022-10-19T05:05:44.846Z,45614.06
2022-10-19T05:08:11.524Z,45612.06
2022-10-19T05:10:38.210Z,45632.06
2022-10-19T05:13:05.207Z,45628.06
2022-10-19T05:15:32.101Z,45610.06
2022-10-19T05:17:58.508Z,45618.06
2022-10-19T05:20:24.885Z,45622.06
2022-10-19T05:22:51.747Z,45622.06
2022-10-19T05:25:18.198Z,45626.06
2022-10-19T05:27:44.644Z,45634.06
2022-10-19T05:30:11.250Z,45634.06
2022-10-19T05:32:37.617Z,45634.06
2022-10-19T05:35:04.266Z,45618.06
2022-10-19T05:37:30.728Z,45634.06
2022-10-19T05:39:57.233Z,45624.06
2022-10-19T05:42:23.599Z,45622.06
2022-10-19T05:44:50.035Z,45636.06
2022-10-19T05:47:16.397Z,45662.03
2022-10-19T05:49:42.778Z,45638.06
2022-10-19T05:52:09.139Z,45642.03
2022-10-19T05:54:36.825Z,45644.03
2022-10-19T05:57:03.350Z,45642.03
2022-10-19T05:59:29.744Z,45656.03
2022-10-19T06:01:56.163Z,45658.03
2022-10-19T06:04:22.550Z,45650.03
2022-10-19T06:06:48.924Z,45646.03
2022-10-19T06:09:15.363Z,45642.03
2022-10-19T06:11:42.740Z,45624.06
2022-10-19T06:14:13.627Z,45630.06
2022-10-19T06:16:40.048Z,45646.03
2022-10-19T06:19:06.597Z,45622.06
2022-10-19T06:21:34.226Z,45640.03
2022-10-19T06:24:03.446Z,45642.03
2022-10-19T06:26:32.202Z,45656.03
2022-10-19T06:29:00.692Z,45630.06
2022-10-19T06:31:32.536Z,45648.03
2022-10-19T06:33:59.018Z,45638.06
2022-10-19T06:36:28.389Z,45636.06
2022-10-19T06:38:56.453Z,45642.03
2022-10-19T06:41:23.475Z,45658.03
2022-10-19T06:43:54.045Z,45638.06
2022-10-19T06:46:23.241Z,45642.03
2022-10-19T06:49:00.662Z,45654.03
2022-10-19T06:51:28.892Z,45650.03
2022-10-19T06:53:57.017Z,45650.03
2022-10-19T06:56:25.293Z,45644.03
2022-10-19T06:58:52.173Z,45642.03
2022-10-19T07:01:19.265Z,45646.03
2022-10-19T07:03:46.271Z,45646.03
2022-10-19T07:06:13.275Z,45632.06
2022-10-19T07:08:41.570Z,45624.06
2022-10-19T07:11:10.882Z,45618.06
2022-10-19T07:13:37.377Z,45624.06
2022-10-19T07:16:06.739Z,45622.06
2022-10-19T07:18:37.094Z,45614.06
2022-10-19T07:21:06.359Z,45614.06
2022-10-19T07:23:35.129Z,45622.06
2022-10-19T07:26:12.137Z,45606.06
2022-10-19T07:28:40.789Z,45606.06
2022-10-19T07:31:10.056Z,45606.06
2022-10-19T07:33:36.741Z,45614.06
2022-10-19T07:36:06.538Z,45606.06
2022-10-19T07:38:34.356Z,45602.06
2022-10-19T07:41:05.571Z,45602.06
2022-10-19T07:43:32.395Z,45602.06
2022-10-19T07:46:05.418Z,45606.06
2022-10-19T07:48:32.332Z,45596.06
2022-10-19T07:51:04.917Z,45606.06
2022-10-19T07:53:31.490Z,45598.06
2022-10-19T07:56:12.759Z,45606.06
2022-10-19T07:58:39.610Z,45602.06
2022-10-19T08:01:09.016Z,45586.09
2022-10-19T08:04:31.682Z,45606.06
2022-10-19T08:06:24.043Z,45602.06
2022-10-19T08:08:52.827Z,45570.09
2022-10-19T08:11:25.987Z,45566.09
2022-10-19T08:13:53.425Z,45590.09
2022-10-19T08:16:44.174Z,45586.09
2022-10-19T08:19:13.482Z,45582.09
2022-10-19T08:21:42.548Z,45574.09
2022-10-19T08:24:09.985Z,45602.06
2022-10-19T08:26:38.254Z,45562.09
2022-10-19T08:29:07.909Z,45558.09
2022-10-19T08:31:34.748Z,45586.09
2022-10-19T08:34:01.278Z,45568.09
2022-10-19T08:36:31.051Z,45570.09
2022-10-19T08:38:57.550Z,45546.13
2022-10-19T08:41:51.991Z,45570.09
2022-10-19T08:44:39.314Z,45572.09
2022-10-19T08:47:23.214Z,45562.09
2022-10-19T08:49:50.308Z,45560.09
2022-10-19T08:52:24.274Z,45558.09
2022-10-19T08:55:00.852Z,45554.09
2022-10-19T08:58:14.370Z,45542.13
2022-10-19T09:00:54.662Z,45552.13
2022-10-19T09:04:00.792Z,45544.13
2022-10-19T09:06:27.156Z,45564.09
2022-10-19T09:08:56.555Z,45538.13
2022-10-19T09:11:27.263Z,45534.13
2022-10-19T09:14:20.872Z,45534.13
2022-10-19T09:16:47.479Z,45538.13
2022-10-19T09:19:30.838Z,45534.13
2022-10-19T09:22:07.595Z,45520.13
2022-10-19T09:24:43.913Z,45526.13
2022-10-19T09:27:23.862Z,45518.13
2022-10-19T09:29:55.076Z,45524.13
2022-10-19T09:32:30.897Z,45502.16
2022-10-19T09:35:02.229Z,45522.13
2022-10-19T09:40:01.331Z,45506.16
2022-10-19T09:42:30.322Z,45520.13
2022-10-19T09:44:59.087Z,45502.16
2022-10-19T09:47:45.665Z,45514.13
2022-10-19T09:50:19.835Z,45506.16
2022-10-19T09:52:47.836Z,45502.16
2022-10-19T09:55:14.172Z,45488.16
2022-10-19T09:57:45.193Z,45498.16
2022-10-19T10:00:26.066Z,45502.16
2022-10-19T10:02:54.608Z,45482.16
2022-10-19T10:05:31.653Z,45490.16
2022-10-19T10:07:58.088Z,45498.16
2022-10-19T10:10:30.574Z,45484.16
2022-10-19T10:13:00.782Z,45490.16
2022-10-19T10:15:35.163Z,45490.16
2022-10-19T10:18:02.417Z,45476.16
2022-10-19T10:20:32.282Z,45474.16
2022-10-19T10:23:02.266Z,45476.16
2022-10-19T10:25:32.161Z,45486.16
2022-10-19T10:28:19.885Z,45478.16
2022-10-19T10:30:48.326Z,45474.16
2022-10-19T10:33:40.015Z,45470.19
2022-10-19T10:36:08.544Z,45466.19
2022-10-19T10:38:47.100Z,45450.19
2022-10-19T10:41:20.122Z,45446.19
2022-10-19T10:46:33.195Z,45426.22
2022-10-19T10:49:05.576Z,45428.22
2022-10-19T10:51:38.742Z,45422.22
2022-10-19T10:54:20.285Z,45416.22
2022-10-19T10:57:16.724Z,45382.25
2022-10-19T11:00:07.672Z,45372.25
2022-10-19T11:02:48.929Z,45370.25
2022-10-19T11:05:22.771Z,45330.28
2022-10-19T11:07:54.322Z,45328.28
2022-10-19T11:10:28.124Z,45326.28
2022-10-19T11:13:15.871Z,45318.28
2022-10-19T11:15:54.110Z,45298.31
2022-10-19T11:18:26.796Z,45282.31
2022-10-19T11:21:09.371Z,45286.31
2022-10-19T11:23:49.088Z,45278.31
2022-10-19T11:26:41.322Z,45272.34
2022-10-19T11:29:32.852Z,45266.34
2022-10-19T11:31:59.584Z,45270.34
2022-10-19T11:34:38.277Z,45260.34
2022-10-19T11:37:28.125Z,45244.34
2022-10-19T11:40:22.099Z,45238.38
2022-10-19T11:43:06.899Z,45244.34
2022-10-19T11:46:09.237Z,45224.38
2022-10-19T11:49:10.828Z,45234.38
2022-10-19T11:51:51.821Z,45214.38
2022-10-19T11:54:55.871Z,45206.38
2022-10-19T11:57:24.417Z,45218.38
2022-10-19T12:00:14.535Z,45210.38
2022-10-19T12:03:15.223Z,45202.38
2022-10-19T12:05:47.561Z,45196.41
2022-10-19T12:08:32.980Z,45194.41
2022-10-19T12:11:21.462Z,45210.38
2022-10-19T12:13:52.905Z,45202.38
2022-10-19T12:16:23.911Z,45198.41
2022-10-19T12:18:55.436Z,45202.38
2022-10-19T12:21:30.066Z,45198.41
2022-10-19T12:24:03.670Z,45202.38
2022-10-19T12:26:34.631Z,45194.41
2022-10-19T12:29:05.988Z,45218.38
2022-10-19T12:31:33.217Z,45194.41
2022-10-19T12:34:21.518Z,45192.41
2022-10-19T12:36:59.064Z,45190.41
2022-10-19T12:39:39.574Z,45206.38
2022-10-19T12:42:18.940Z,45186.41
2022-10-19T12:45:18.750Z,45176.41
2022-10-19T12:48:19.985Z,45176.41
2022-10-19T12:50:49.078Z,45174.41
2022-10-19T12:53:28.565Z,45170.41
2022-10-19T12:56:25.109Z,45158.44
2022-10-19T12:58:56.303Z,45146.44
2022-10-19T13:01:43.877Z,45138.44
2022-10-19T13:04:16.655Z,45144.44
2022-10-19T13:06:46.692Z,45138.44
2022-10-19T13:09:28.997Z,45130.44
2022-10-19T13:12:16.449Z,45134.44
2022-10-19T13:14:57.118Z,45138.44
2022-10-19T13:17:40.663Z,45122.47
2022-10-19T13:20:12.907Z,45114.47
2022-10-19T13:22:42.218Z,45116.47
2022-10-19T13:25:28.281Z,45112.47
2022-10-19T13:28:17.653Z,45118.47
2022-10-19T13:30:44.015Z,45118.47
2022-10-19T13:33:25.419Z,45110.47
2022-10-19T13:36:02.090Z,45108.47
2022-10-19T13:41:19.294Z,45098.47
2022-10-19T13:44:02.632Z,45102.47
2022-10-19T13:46:28.972Z,45092.50
2022-10-19T13:49:01.224Z,45116.47
2022-10-19T13:51:41.697Z,45114.47
2022-10-19T13:54:26.303Z,45126.47
2022-10-19T13:57:13.188Z,45128.47
2022-10-19T14:00:07.448Z,45128.47
2022-10-19T14:02:54.623Z,45142.44
2022-10-19T14:06:02.339Z,45164.44
2022-10-19T14:09:07.016Z,45158.44
2022-10-19T14:11:39.963Z,45164.44
2022-10-19T14:14:07.301Z,45182.41
2022-10-19T14:16:33.702Z,45184.41
2022-10-19T14:19:00.424Z,45178.41
2022-10-19T14:21:34.654Z,45210.38
2022-10-19T14:24:01.141Z,45198.41
2022-10-19T14:26:30.891Z,45198.41
2022-10-19T14:28:59.365Z,45222.38
2022-10-19T14:31:33.268Z,45226.38
2022-10-19T14:34:02.461Z,45234.38
2022-10-19T14:36:34.998Z,45224.38
2022-10-19T14:39:02.241Z,45238.38
2022-10-19T14:41:28.737Z,45234.38
2022-10-19T14:43:56.843Z,45242.34
2022-10-19T14:46:33.905Z,45262.34
2022-10-19T14:49:03.146Z,45266.34
2022-10-19T14:51:43.384Z,45270.34
2022-10-19T14:54:18.790Z,45278.31
2022-10-19T14:56:51.286Z,45270.34
2022-10-19T14:59:52.785Z,45302.31
2022-10-19T15:02:28.113Z,45296.31
2022-10-19T15:04:58.488Z,45306.31
2022-10-19T15:07:33.592Z,45306.31
2022-10-19T15:10:03.653Z,45298.31
2022-10-19T15:12:37.071Z,45302.31
2022-10-19T15:15:15.079Z,45324.28
2022-10-19T15:17:54.526Z,45314.28
2022-10-19T15:20:43.908Z,45320.28
2022-10-19T15:23:44.251Z,45322.28
2022-10-19T15:26:19.248Z,45338.28
2022-10-19T15:28:47.027Z,45324.28
2022-10-19T15:31:20.679Z,45346.28
2022-10-19T15:33:52.390Z,45338.28
2022-10-19T15:36:21.282Z,45352.28
2022-10-19T15:38:50.077Z,45350.28
2022-10-19T15:41:25.160Z,45334.28
2022-10-19T15:43:53.904Z,45354.25
2022-10-19T15:46:34.069Z,45346.28
2022-10-19T15:49:04.888Z,45346.28
2022-10-19T15:51:34.213Z,45350.28
2022-10-19T15:54:06.387Z,45354.25
2022-10-19T15:56:38.233Z,45354.25
2022-10-19T15:59:13.758Z,45362.25
2022-10-19T16:01:40.566Z,45360.25
2022-10-19T16:04:07.113Z,45386.25
2022-10-19T16:06:36.455Z,45376.25
2022-10-19T16:09:03.854Z,45382.25
2022-10-19T16:11:32.191Z,45382.25
2022-10-19T16:13:58.622Z,45378.25
2022-10-19T16:16:30.762Z,45370.25
2022-10-19T16:18:57.350Z,45378.25
2022-10-19T16:21:27.994Z,45378.25
2022-10-19T16:23:54.392Z,45390.25
2022-10-19T16:26:21.361Z,45398.22
2022-10-19T16:28:48.614Z,45386.25
2022-10-19T16:31:15.645Z,45386.25
2022-10-19T16:33:42.009Z,45396.22
2022-10-19T16:36:09.385Z,45392.22
2022-10-19T16:38:36.268Z,45402.22
2022-10-19T16:41:07.814Z,45378.25
2022-10-19T16:43:35.269Z,45386.25
2022-10-19T16:46:02.503Z,45398.22
2022-10-19T16:48:29.748Z,45394.22
2022-10-19T16:51:05.314Z,45430.22
2022-10-19T16:53:32.550Z,45426.22
2022-10-19T16:56:07.595Z,45398.22
2022-10-19T16:58:34.335Z,45406.22
2022-10-19T17:01:32.595Z,45416.22
2022-10-19T17:03:59.730Z,45422.22
2022-10-19T17:06:27.151Z,45426.22
2022-10-19T17:11:42.556Z,45410.22
2022-10-19T17:14:11.864Z,45418.22
2022-10-19T17:16:38.815Z,45418.22
2022-10-19T17:19:06.956Z,45426.22
2022-10-19T17:21:38.067Z,45420.22
2022-10-19T17:24:07.000Z,45426.22
2022-10-19T17:26:39.566Z,45420.22
2022-10-19T17:29:06.539Z,45430.22
2022-10-19T17:31:33.028Z,45422.22
2022-10-19T17:34:00.678Z,45412.22
2022-10-19T17:36:30.252Z,45424.22
2022-10-19T17:39:00.502Z,45406.22
2022-10-19T17:41:28.396Z,45420.22
2022-10-19T17:43:55.049Z,45446.19
2022-10-19T17:46:27.758Z,45442.19
2022-10-19T17:48:54.522Z,45438.19
2022-10-19T17:51:23.755Z,45458.19
2022-10-19T17:53:51.054Z,45440.19
2022-10-19T17:56:19.552Z,45452.19
2022-10-19T17:58:46.484Z,45430.22
2022-10-19T18:01:13.702Z,45426.22
2022-10-19T18:03:40.202Z,45426.22
2022-10-19T18:06:12.457Z,45434.19
2022-10-19T18:08:41.307Z,45446.19
2022-10-19T18:11:12.966Z,45436.19
2022-10-19T18:13:40.472Z,45430.22
2022-10-19T18:16:12.881Z,45446.19
2022-10-19T18:18:41.258Z,45446.19
2022-10-19T18:21:11.426Z,45434.19
2022-10-19T18:23:38.122Z,45462.19
2022-10-19T18:26:07.709Z,45450.19
2022-10-19T18:28:34.767Z,45442.19
2022-10-19T18:31:30.554Z,45450.19
2022-10-19T18:34:02.412Z,45434.19
2022-10-19T18:36:30.137Z,45442.19
2022-10-19T18:38:58.903Z,45442.19
2022-10-19T18:41:25.874Z,45442.19
2022-10-19T18:44:04.868Z,45462.19
2022-10-19T18:46:33.762Z,45442.19
2022-10-19T18:49:01.229Z,45446.19
2022-10-19T18:51:28.348Z,45460.19
2022-10-19T18:53:55.049Z,45454.19
2022-10-19T18:56:22.821Z,45454.19
2022-10-19T18:58:49.437Z,45470.19
2022-10-19T19:01:20.280Z,45466.19
2022-10-19T19:03:49.753Z,45454.19
2022-10-19T19:06:25.058Z,45438.19
2022-10-19T19:08:55.311Z,45478.16
2022-10-19T19:11:24.124Z,45470.19
2022-10-19T19:13:56.745Z,45458.19
2022-10-19T19:16:24.531Z,45466.19
2022-10-19T19:18:51.352Z,45470.19
2022-10-19T19:21:20.377Z,45478.16
2022-10-19T19:23:47.901Z,45476.16
2022-10-19T19:26:15.575Z,45462.19
2022-10-19T19:28:43.506Z,45484.16
2022-10-19T19:31:15.173Z,45482.16
2022-10-19T19:33:43.035Z,45474.16
2022-10-19T19:36:11.408Z,45496.16
2022-10-19T19:38:37.801Z,45472.16
2022-10-19T19:41:06.227Z,45476.16
2022-10-19T19:43:34.813Z,45478.16
2022-10-19T19:46:06.419Z,45482.16
2022-10-19T19:48:36.562Z,45502.16
2022-10-19T19:51:03.133Z,45486.16
2022-10-19T19:53:29.542Z,45494.16
2022-10-19T19:55:56.061Z,45490.16
2022-10-19T19:58:22.453Z,45490.16
2022-10-19T20:00:48.859Z,45486.16
2022-10-19T20:03:15.737Z,45494.16
2022-10-19T20:05:42.645Z,45474.16
2022-10-19T20:08:09.934Z,45498.16
2022-10-19T20:10:40.906Z,45498.16
2022-10-19T20:13:07.604Z,45488.16
2022-10-19T20:15:34.104Z,45512.16
2022-10-19T20:18:00.466Z,45510.16
2022-10-19T20:20:26.840Z,45492.16
2022-10-19T20:22:53.402Z,45482.16
2022-10-19T20:25:19.750Z,45494.16
2022-10-19T20:27:46.141Z,45502.16
2022-10-19T20:30:12.518Z,45498.16
2022-10-19T20:32:39.129Z,45518.13
2022-10-19T20:35:07.288Z,45510.16
2022-10-19T20:37:33.728Z,45498.16
2022-10-19T20:40:01.464Z,45506.16
2022-10-19T20:42:28.814Z,45506.16
2022-10-19T20:44:56.190Z,45514.13
2022-10-19T20:47:22.609Z,45518.13
2022-10-19T20:49:48.960Z,45498.16
2022-10-19T20:52:15.406Z,45518.13
2022-10-19T20:54:41.835Z,45514.13
2022-10-19T20:57:08.220Z,45518.13
2022-10-19T20:59:34.634Z,45512.16
2022-10-19T21:02:01.094Z,45508.16
2022-10-19T21:04:27.581Z,45500.16
2022-10-19T21:06:54.035Z,45508.16
2022-10-19T21:09:22.497Z,45528.13
2022-10-19T21:11:50.670Z,45510.16
2022-10-19T21:14:25.382Z,45516.13
2022-10-19T21:16:56.469Z,45502.16
2022-10-19T21:19:25.232Z,45506.16
2022-10-19T21:21:57.035Z,45512.16
2022-10-19T21:24:29.564Z,45518.13
2022-10-19T21:26:56.019Z,45506.16
2022-10-19T21:29:22.461Z,45534.13
2022-10-19T21:31:50.090Z,45514.13
2022-10-19T21:34:19.513Z,45506.16
2022-10-19T21:36:46.124Z,45518.13
2022-10-19T21:39:12.629Z,45506.16
2022-10-19T21:41:39.184Z,45524.13
2022-10-19T21:44:05.572Z,45522.13
2022-10-19T21:46:32.073Z,45510.16
2022-10-19T21:48:58.502Z,45498.16
2022-10-19T21:51:33.270Z,45518.13
2022-10-19T21:54:00.416Z,45506.16
2022-10-19T21:56:27.257Z,45518.13
2022-10-19T21:58:54.263Z,45512.16
2022-10-19T22:01:23.143Z,45538.13
2022-10-19T22:03:49.853Z,45522.13
2022-10-19T22:06:16.360Z,45524.13
2022-10-19T22:08:46.616Z,45520.13
2022-10-19T22:11:14.136Z,45528.13
2022-10-19T22:13:41.218Z,45538.13
2022-10-19T22:16:17.303Z,45522.13
2022-10-19T22:18:44.296Z,45538.13
2022-10-19T22:21:14.427Z,45538.13
2022-10-19T22:23:41.739Z,45540.13
2022-10-19T22:26:17.403Z,45526.13
2022-10-19T22:28:44.733Z,45542.13
2022-10-19T22:31:11.969Z,45528.13
2022-10-19T22:33:39.434Z,45546.13
2022-10-19T22:36:08.341Z,45550.13
2022-10-19T22:38:35.715Z,45516.13
2022-10-19T22:41:02.118Z,45518.13
2022-10-19T22:43:28.721Z,45544.13
2022-10-19T22:45:55.094Z,45540.13
2022-10-19T22:48:21.504Z,45538.13
2022-10-19T22:50:47.931Z,45546.13
2022-10-19T22:53:14.397Z,45538.13
2022-10-19T22:55:40.792Z,45540.13
2022-10-19T22:58:08.462Z,45554.09
2022-10-19T23:00:34.889Z,45538.13
2022-10-19T23:03:01.329Z,45546.13
2022-10-19T23:05:27.970Z,45522.13
2022-10-19T23:07:54.392Z,45538.13
2022-10-19T23:10:20.897Z,45550.13
2022-10-19T23:12:52.002Z,45534.13
2022-10-19T23:15:19.422Z,45554.09
2022-10-19T23:17:45.972Z,45542.13
2022-10-19T23:20:12.900Z,45546.13
2022-10-19T23:22:39.958Z,45556.09
2022-10-19T23:25:07.223Z,45564.09
2022-10-19T23:27:34.342Z,45548.13
2022-10-19T23:30:01.625Z,45544.13
2022-10-19T23:32:28.040Z,45542.13
2022-10-19T23:34:54.414Z,45534.13
2022-10-19T23:37:20.820Z,45546.13
2022-10-19T23:39:47.233Z,45560.09
2022-10-19T23:42:13.616Z,45550.13
2022-10-19T23:44:40.002Z,45542.13
2022-10-19T23:47:06.389Z,45548.13
2022-10-19T23:49:32.753Z,45562.09
2022-10-19T23:51:59.125Z,45550.13
2022-10-19T23:54:25.580Z,45562.09
2022-10-19T23:56:52.006Z,45562.09
2022-10-19T23:59:18.356Z,45548.13
